メキシコ・シティ国際空港の過去48時間の天気

メキシコ・シティ国際空港 (Mexico City / Licenci)

現在時刻: 10/1 10:30 CDT (10/1 15:30 UTC) 以下の時間は現地時間です。

過去48時間のMETAR気象情報
時間 風向 風速(m/s) 視程 気温(℃) 湿度(%) 気圧(hPa) 天気現象
1 09:41 2 10km以上 14 63 1013.8
1 09:01 3 10km以上 11 76 1028
1 07:50 2 10km以上 10 76 1028
1 06:45 3 10km以上 10 82 1012.7
1 05:43 3 10km以上 10 87 1027
1 04:42 2 10km以上 10 87 1027
1 03:42 東北東 4 10km以上 11 76 1012.1
1 02:51 東北東 4 10km以上 12 71 1027
1 02:46 4 10km以上 13 67 1028
1 01:45 北西 3 10km以上 15 55 1028
1 00:45 西北西 4 10km以上 15 55 1013
30 23:45 西北西 4 10km以上 16 55 1029
30 22:45 西北西 5 10km以上 17 52 1029
30 21:45 3 10km以上 18 45 1013.9
30 20:45 5 10km以上 19 43 1027
30 19:45 北東 3 10km以上 20 43 1026
30 18:46 東北東 4 10km以上 21 38 1009.9
30 17:45 静穏 0 10km以上 22 35 1025
30 16:46 西南西 2 10km以上 23 31 1025
30 16:37 2 10km以上 23 33 1025
30 15:45 静穏 0 10km以上 21 35 1010.9
30 14:45 2 10km以上 20 37 1027
30 13:45 北東 3 10km以上 19 40 1028
30 12:50 静穏 0 10km以上 18 39 1015.8
30 12:22 3 10km以上 17 39 1030
30 11:45 北西 2 10km以上 15 45 1031
30 10:45 南東 2 10km以上 14 47 1031
30 09:45 東北東 2 10km以上 12 50 1019.6
30 08:49 東北東 2 10km以上 11 58 1030
30 07:45 静穏 0 10km以上 10 58 1030
30 06:42 西北西 2 10km以上 10 62 1019.4
30 05:44 2 10km以上 10 54 1029
30 04:45 静穏 0 10km以上 10 66 1029
30 03:55 北西 3 10km以上 11 62 1016.2
30 02:46 2 10km以上 11 62 1030
30 01:42 東北東 2 10km以上 10 66 1031
30 00:44 北北東 3 10km以上 11 71 1018.4
29 23:45 西 4 10km以上 11 71 1031
29 22:44 北西 3 10km以上 12 67 1031
29 21:48 西 3 10km以上 12 71 1018.6
29 20:44 西北西 4 10km以上 12 71 1030
29 19:45 北西 3 10km以上 12 67 1030
29 18:40 4 10km以上 13 67 1017.3
29 17:45 北北西 4 10km以上 13 67 1029
29 16:42 北西 5 10km以上 12 71 1029
29 15:42 北西 5 10km以上 12 77 1016.2
29 15:40 北西 5 10km以上 12 71 1029
29 14:43 5 10km以上 14 67 1029
29 13:41 6 10km以上 14 67 1030
29 12:44 7 10km以上 15 63 1016.4
29 11:46 6 10km以上 15 72 1031
29 10:49 4 10km以上 14 77 1031
MMMX 011441Z 10003KT 7SM SKC 14/07 A3038 NOSIG RMK SLP138 52013 967 HZY CI
MMMX 011401Z 08005KT 7SM SKC 11/07 A3037 NOSIG RMK HZY CI
MMMX 011250Z 10004KT 7SM SKC 10/06 A3035 NOSIG RMK HZY CI
MMMX 011145Z 08005KT 8SM SKC 10/07 A3033 NOSIG RMK SLP127 52001 971 HZY
MMMX 011043Z 09005KT 8SM SKC 10/08 A3032 NOSIG RMK HZY
MMMX 010942Z 10004KT 10SM SKC 10/08 A3032 NOSIG RMK HZY
MMMX 010842Z 07007KT 10SM SKC 11/07 A3033 NOSIG RMK SLP121 57010 955 HZY
MMMX 010751Z 07007KT 10SM SKC 12/07 A3034 NOSIG RMK HZY ISOL CI
MMMX 010746Z 08007KT 10SM SKC 13/07 A3035 NOSIG RMK HZY ISOL CI
MMMX 010645Z 32005KT 10SM FEW080 15/06 A3035 NOSIG RMK 8/030 HZY
MMMX 010545Z 29007KT 10SM FEW020 SCT080 15/06 A3037 NOSIG RMK SLP130 52002 968 8/530 HZY
MMMX 010445Z 30007KT 10SM FEW020 BKN080 16/07 A3038 NOSIG RMK 8/430 HZY
MMMX 010345Z 30009KT 10SM FEW020 BKN080 17/07 A3038 NOSIG RMK 8/430 HZY
MMMX 010245Z 36006KT 10SM SCT020 BKN080 18/06 A3036 NOSIG RMK SLP139 52028 972 8/430 HZY ISOL CI
MMMX 010145Z 01010KT 10SM SCT020 BKN080 19/06 A3033 NOSIG RMK 8/430 HZY
MMMX 010045Z 04005KT 8SM SCT020 BKN080 20/07 A3030 NOSIG RMK 8/430 HZY ISOL CI
MMMX 302346Z 06007KT 7SM SCT020 BKN080 BKN200 21/06 A3026 NOSIG RMK SLP099 57011 990 8/432 HZY
MMMX 302245Z 00000KT 6SM FEW020 SCT080 BKN200 22/06 A3026 NOSIG RMK 8/232 HZY
MMMX 302146Z 25004KT 6SM FEW020 SCT080 BKN200 23/05 A3027 NOSIG RMK 8/132 HZY
MMMX 302137Z 19003KT 6SM FEW020 SCT080 BKN200 23/06 A3027 NOSIG RMK 8/132 HZY
MMMX 302045Z 00000KT 6SM FEW020 SCT080 BKN200 21/05 A3030 NOSIG RMK SLP109 57028 981 8/131 HZY
MMMX 301945Z 17003KT 7SM SCT080 SCT200 20/05 A3033 NOSIG RMK 8/031 HZY ISOL CU
MMMX 301845Z 05006KT 7SM SCT070 SCT200 19/05 A3035 NOSIG RMK 8/031 HZY
MMMX 301750Z 00000KT 7SM FEW020 SCT070 18/04 A3040 NOSIG RMK SLP158 57012 965 8/530 HZY ISOL CU
MMMX 301722Z 35005KT 7SM FEW020 SCT070 17/03 A3041 NOSIG RMK 8/530 HZY
MMMX 301645Z 32004KT 7SM SCT070 15/03 A3043 NOSIG RMK 8/030 HZY SC
MMMX 301545Z 13004KT 7SM FEW020 BKN070 14/03 A3044 NOSIG RMK 8/530 HZY
MMMX 301445Z 06004KT 7SM SCT020 BKN070 12/02 A3044 NOSIG RMK SLP196 52009 951 8/530 HZY
MMMX 301349Z 07004KT 7SM SCT020 11/03 A3042 NOSIG RMK 8/500 HZY
MMMX 301245Z 00000KT 8SM BKN020 10/02 A3041 NOSIG RMK 8/500 HZY
MMMX 301142Z 30003KT 7SM BKN020 10/03 A3040 NOSIG RMK SLP194 52017 915 8/500 HZY
MMMX 301044Z 36004KT 7SM BKN020 10/01 A3039 NOSIG RMK 8/500 HZY ISOL AC
MMMX 300945Z 00000KT 7SM SCT015 10/04 A3039 NOSIG RMK 8/500 HZY ISOL AC
MMMX 300855Z 32006KT 6SM SCT015 BKN070 11/04 A3039 NOSIG RMK SLP162 57023 908 8/570 HZY
MMMX 300746Z 08003KT 6SM OVC015 11/04 A3042 NOSIG RMK 8/6// HZY
MMMX 300642Z 07003KT 7SM BKN020 OVC070 10/04 A3043 NOSIG RMK 8/53/ BINOVC HZY
MMMX 300544Z 03005KT 7SM SCT020 BKN070 11/06 A3043 NOSIG RMK SLP184 57002 922 8/530 CI HZY
MMMX 300445Z 28007KT 7SM BKN020 BKN070 11/06 A3044 NOSIG RMK 8/530 CI HZY
MMMX 300344Z 32006KT 7SM BKN020 OVC070 12/06 A3044 NOSIG RMK 8/57/ BINOVC HZY
MMMX 300248Z 28006KT 7SM BKN020 OVC070 12/07 A3044 NOSIG RMK SLP186 52010 940 8/77/ LWR SC BINOVC HZY
MMMX 300144Z 30008KT 6SM BKN020 OVC070 12/07 A3042 NOSIG RMK 8/77/ LWR SC BINOVC HZY
MMMX 300045Z 32006KT 6SM BKN020 OVC070 12/06 A3041 NOSIG RMK 8/77/ LWR SC BINOVC HZY
MMMX 292340Z 35008KT 6SM SCT025 OVC070 13/07 A3041 NOSIG RMK SLP173 57002 942 8/57/ HZY
MMMX 292245Z 33007KT 6SM BKN025 OVC070 13/07 A3039 NOSIG RMK 8/77/ HZY
MMMX 292142Z 32010KT 6SM BKN020 OVC070 12/07 A3038 NOSIG RMK 8/77/ HZY OCNL DROPS
MMMX 292042Z 31010KT 6SM BKN020 OVC070 12/08 A3038 NOSIG RMK SLP162 57012 942 8/77/ HZY OCNL DROPS
MMMX 292040Z 32009KT 6SM BKN020 OVC070 12/07 A3039 NOSIG RMK 8/77/ HZY OCNL DROPS
MMMX 291943Z 36010KT 8SM BKN020 OVC070 14/08 A3039 NOSIG RMK 8/87/ HZY OCNL DROPS
MMMX 291841Z 01011KT 8SM BKN020 OVC070 14/08 A3041 NOSIG RMK 8/87/ HZY OCNL DROPS
MMMX 291744Z 35013KT 10SM BKN020 BKN220 15/08 A3044 NOSIG RMK SLP164 52002 940 8/802
MMMX 291646Z 01011KT 8SM BKN020 OVC220 15/10 A3045 NOSIG RMK 8/802 HZY AC BINOVC
MMMX 291549Z 01007KT 8SM FEW015 BKN020 OVC070 14/10 A3045 NOSIG RMK 8/57/ HZY OCNL DROPS